sensor_id;sensor_type;location;lat;lon;timestamp;temperature;humidity
17948;DHT22;9099;47.958;11.366;2023-12-20T00:00:56;7.50;99.90
17948;DHT22;9099;47.958;11.366;2023-12-20T00:03:22;7.50;99.90
17948;DHT22;9099;47.958;11.366;2023-12-20T00:05:49;7.50;99.90
17948;DHT22;9099;47.958;11.366;2023-12-20T00:08:17;7.60;99.90
17948;DHT22;9099;47.958;11.366;2023-12-20T00:10:44;7.60;99.90
17948;DHT22;9099;47.958;11.366;2023-12-20T00:13:11;7.70;99.90
17948;DHT22;9099;47.958;11.366;2023-12-20T00:15:39;7.70;99.90
17948;DHT22;9099;47.958;11.366;2023-12-20T00:18:07;7.70;99.90
17948;DHT22;9099;47.958;11.366;2023-12-20T00:20:34;7.70;99.90
17948;DHT22;9099;47.958;11.366;2023-12-20T00:23:01;7.70;99.90
17948;DHT22;9099;47.958;11.366;2023-12-20T00:25:28;7.70;99.90
17948;DHT22;9099;47.958;11.366;2023-12-20T00:27:55;7.70;99.90
17948;DHT22;9099;47.958;11.366;2023-12-20T00:30:22;7.70;99.90
17948;DHT22;9099;47.958;11.366;2023-12-20T00:32:50;7.60;99.90
17948;DHT22;9099;47.958;11.366;2023-12-20T00:35:17;7.60;99.90
17948;DHT22;9099;47.958;11.366;2023-12-20T00:37:44;7.60;99.90
17948;DHT22;9099;47.958;11.366;2023-12-20T00:40:11;7.70;99.90
17948;DHT22;9099;47.958;11.366;2023-12-20T00:42:38;7.70;99.90
17948;DHT22;9099;47.958;11.366;2023-12-20T00:45:05;7.70;99.90
17948;DHT22;9099;47.958;11.366;2023-12-20T00:47:32;7.70;99.90
17948;DHT22;9099;47.958;11.366;2023-12-20T00:50:00;7.70;99.90
17948;DHT22;9099;47.958;11.366;2023-12-20T00:52:28;7.70;99.90
17948;DHT22;9099;47.958;11.366;2023-12-20T00:54:54;7.70;99.90
17948;DHT22;9099;47.958;11.366;2023-12-20T00:57:21;7.80;99.90
17948;DHT22;9099;47.958;11.366;2023-12-20T00:59:49;7.70;99.90
17948;DHT22;9099;47.958;11.366;2023-12-20T01:02:15;7.70;99.90
17948;DHT22;9099;47.958;11.366;2023-12-20T01:04:42;7.70;99.90
17948;DHT22;9099;47.958;11.366;2023-12-20T01:07:11;7.70;99.90
17948;DHT22;9099;47.958;11.366;2023-12-20T01:09:38;7.70;99.90
17948;DHT22;9099;47.958;11.366;2023-12-20T01:12:05;7.70;99.90
17948;DHT22;9099;47.958;11.366;2023-12-20T01:14:32;7.70;99.90
17948;DHT22;9099;47.958;11.366;2023-12-20T01:16:59;7.60;99.90
17948;DHT22;9099;47.958;11.366;2023-12-20T01:19:26;7.50;99.90
17948;DHT22;9099;47.958;11.366;2023-12-20T01:21:54;7.50;99.90
17948;DHT22;9099;47.958;11.366;2023-12-20T01:24:22;7.50;99.90
17948;DHT22;9099;47.958;11.366;2023-12-20T01:26:49;7.50;99.90
17948;DHT22;9099;47.958;11.366;2023-12-20T01:29:15;7.50;99.90
17948;DHT22;9099;47.958;11.366;2023-12-20T01:31:42;7.40;99.90
17948;DHT22;9099;47.958;11.366;2023-12-20T01:34:09;7.40;99.90
17948;DHT22;9099;47.958;11.366;2023-12-20T01:36:36;7.40;99.90
17948;DHT22;9099;47.958;11.366;2023-12-20T01:39:03;7.40;99.90
17948;DHT22;9099;47.958;11.366;2023-12-20T01:41:31;7.40;99.90
17948;DHT22;9099;47.958;11.366;2023-12-20T01:43:57;7.40;99.90
17948;DHT22;9099;47.958;11.366;2023-12-20T01:46:24;7.40;99.90
17948;DHT22;9099;47.958;11.366;2023-12-20T01:48:52;7.30;99.90
17948;DHT22;9099;47.958;11.366;2023-12-20T01:51:19;7.30;99.90
17948;DHT22;9099;47.958;11.366;2023-12-20T01:53:47;7.30;99.90
17948;DHT22;9099;47.958;11.366;2023-12-20T01:56:15;7.20;99.90
17948;DHT22;9099;47.958;11.366;2023-12-20T01:58:44;7.20;99.90
17948;DHT22;9099;47.958;11.366;2023-12-20T02:01:11;7.20;99.90
17948;DHT22;9099;47.958;11.366;2023-12-20T02:03:39;7.20;99.90
17948;DHT22;9099;47.958;11.366;2023-12-20T02:06:07;7.20;99.90
17948;DHT22;9099;47.958;11.366;2023-12-20T02:08:34;7.20;99.90
17948;DHT22;9099;47.958;11.366;2023-12-20T02:11:01;7.20;99.90
17948;DHT22;9099;47.958;11.366;2023-12-20T02:13:28;7.30;99.90
17948;DHT22;9099;47.958;11.366;2023-12-20T02:15:56;7.30;99.90
17948;DHT22;9099;47.958;11.366;2023-12-20T02:18:23;7.20;99.90
17948;DHT22;9099;47.958;11.366;2023-12-20T02:20:50;7.20;99.90
17948;DHT22;9099;47.958;11.366;2023-12-20T02:23:18;7.20;99.90
17948;DHT22;9099;47.958;11.366;2023-12-20T02:25:45;7.20;99.90
17948;DHT22;9099;47.958;11.366;2023-12-20T02:28:12;7.30;99.90
17948;DHT22;9099;47.958;11.366;2023-12-20T02:30:38;7.20;99.90
17948;DHT22;9099;47.958;11.366;2023-12-20T02:33:07;7.30;99.90
17948;DHT22;9099;47.958;11.366;2023-12-20T02:35:34;7.30;99.90
17948;DHT22;9099;47.958;11.366;2023-12-20T02:38:01;7.30;99.90
17948;DHT22;9099;47.958;11.366;2023-12-20T02:40:29;7.30;99.90
17948;DHT22;9099;47.958;11.366;2023-12-20T02:42:56;7.30;99.90
17948;DHT22;9099;47.958;11.366;2023-12-20T02:45:23;7.40;99.90
17948;DHT22;9099;47.958;11.366;2023-12-20T02:47:50;7.40;99.90
17948;DHT22;9099;47.958;11.366;2023-12-20T02:50:17;7.40;99.90
17948;DHT22;9099;47.958;11.366;2023-12-20T02:52:44;7.40;99.90
17948;DHT22;9099;47.958;11.366;2023-12-20T02:55:11;7.30;99.90
17948;DHT22;9099;47.958;11.366;2023-12-20T02:57:39;7.30;99.90
17948;DHT22;9099;47.958;11.366;2023-12-20T03:00:08;7.20;99.90
17948;DHT22;9099;47.958;11.366;2023-12-20T03:02:35;7.20;99.90
17948;DHT22;9099;47.958;11.366;2023-12-20T03:05:02;7.10;99.90
17948;DHT22;9099;47.958;11.366;2023-12-20T03:07:28;7.10;99.90
17948;DHT22;9099;47.958;11.366;2023-12-20T03:09:55;7.10;99.90
17948;DHT22;9099;47.958;11.366;2023-12-20T03:12:22;7.10;99.90
17948;DHT22;9099;47.958;11.366;2023-12-20T03:14:50;7.10;99.90
17948;DHT22;9099;47.958;11.366;2023-12-20T03:17:17;7.20;99.90
17948;DHT22;9099;47.958;11.366;2023-12-20T03:19:44;7.20;99.90
17948;DHT22;9099;47.958;11.366;2023-12-20T03:22:11;7.20;99.90
17948;DHT22;9099;47.958;11.366;2023-12-20T03:24:37;7.20;99.90
17948;DHT22;9099;47.958;11.366;2023-12-20T03:27:04;7.30;99.90
17948;DHT22;9099;47.958;11.366;2023-12-20T03:29:31;7.30;99.90
17948;DHT22;9099;47.958;11.366;2023-12-20T03:31:59;7.30;99.90
17948;DHT22;9099;47.958;11.366;2023-12-20T03:34:26;7.40;99.90
17948;DHT22;9099;47.958;11.366;2023-12-20T03:36:54;7.40;99.90
17948;DHT22;9099;47.958;11.366;2023-12-20T03:39:21;7.40;99.90
17948;DHT22;9099;47.958;11.366;2023-12-20T03:41:48;7.40;99.90
17948;DHT22;9099;47.958;11.366;2023-12-20T03:44:15;7.40;99.90
17948;DHT22;9099;47.958;11.366;2023-12-20T03:46:41;7.40;99.90
17948;DHT22;9099;47.958;11.366;2023-12-20T03:49:10;7.50;99.90
17948;DHT22;9099;47.958;11.366;2023-12-20T03:51:37;7.40;99.90
17948;DHT22;9099;47.958;11.366;2023-12-20T03:54:03;7.40;99.90
17948;DHT22;9099;47.958;11.366;2023-12-20T03:56:30;7.50;99.90
17948;DHT22;9099;47.958;11.366;2023-12-20T03:58:57;7.50;99.90
17948;DHT22;9099;47.958;11.366;2023-12-20T04:01:24;7.60;99.90
17948;DHT22;9099;47.958;11.366;2023-12-20T04:03:51;7.50;99.90
17948;DHT22;9099;47.958;11.366;2023-12-20T04:06:19;7.50;99.90
17948;DHT22;9099;47.958;11.366;2023-12-20T04:08:46;7.50;99.90
17948;DHT22;9099;47.958;11.366;2023-12-20T04:11:13;7.50;99.90
17948;DHT22;9099;47.958;11.366;2023-12-20T04:13:39;7.50;99.90
17948;DHT22;9099;47.958;11.366;2023-12-20T04:16:06;7.60;99.90
17948;DHT22;9099;47.958;11.366;2023-12-20T04:18:33;7.60;99.90
17948;DHT22;9099;47.958;11.366;2023-12-20T04:21:00;7.60;99.90
17948;DHT22;9099;47.958;11.366;2023-12-20T04:23:28;7.70;99.90
17948;DHT22;9099;47.958;11.366;2023-12-20T04:25:55;7.70;99.90
17948;DHT22;9099;47.958;11.366;2023-12-20T04:28:22;7.70;99.90
17948;DHT22;9099;47.958;11.366;2023-12-20T04:30:49;7.60;99.90
17948;DHT22;9099;47.958;11.366;2023-12-20T04:33:15;7.60;99.90
17948;DHT22;9099;47.958;11.366;2023-12-20T04:35:42;7.50;99.90
17948;DHT22;9099;47.958;11.366;2023-12-20T04:38:11;7.40;99.90
17948;DHT22;9099;47.958;11.366;2023-12-20T04:40:39;7.40;99.90
17948;DHT22;9099;47.958;11.366;2023-12-20T04:43:06;7.40;99.90
17948;DHT22;9099;47.958;11.366;2023-12-20T04:45:34;7.40;99.90
17948;DHT22;9099;47.958;11.366;2023-12-20T04:48:01;7.40;99.90
17948;DHT22;9099;47.958;11.366;2023-12-20T04:50:28;7.30;99.90
17948;DHT22;9099;47.958;11.366;2023-12-20T04:52:55;7.30;99.90
17948;DHT22;9099;47.958;11.366;2023-12-20T04:55:22;7.30;99.90
17948;DHT22;9099;47.958;11.366;2023-12-20T04:57:50;7.30;99.90
17948;DHT22;9099;47.958;11.366;2023-12-20T05:00:17;7.20;99.90
17948;DHT22;9099;47.958;11.366;2023-12-20T05:02:44;7.20;99.90
17948;DHT22;9099;47.958;11.366;2023-12-20T05:05:11;7.20;99.90
17948;DHT22;9099;47.958;11.366;2023-12-20T05:07:40;7.10;99.90
17948;DHT22;9099;47.958;11.366;2023-12-20T05:10:08;7.10;99.90
17948;DHT22;9099;47.958;11.366;2023-12-20T05:12:35;7.10;99.90
17948;DHT22;9099;47.958;11.366;2023-12-20T05:15:04;7.10;99.90
17948;DHT22;9099;47.958;11.366;2023-12-20T05:17:31;7.00;99.90
17948;DHT22;9099;47.958;11.366;2023-12-20T05:19:58;7.00;99.90
17948;DHT22;9099;47.958;11.366;2023-12-20T05:22:25;7.00;99.90
17948;DHT22;9099;47.958;11.366;2023-12-20T05:24:53;7.00;99.90
17948;DHT22;9099;47.958;11.366;2023-12-20T05:27:20;7.00;99.90
17948;DHT22;9099;47.958;11.366;2023-12-20T05:29:46;7.00;99.90
17948;DHT22;9099;47.958;11.366;2023-12-20T05:32:14;7.00;99.90
17948;DHT22;9099;47.958;11.366;2023-12-20T05:34:41;7.00;99.90
17948;DHT22;9099;47.958;11.366;2023-12-20T05:37:08;7.00;99.90
17948;DHT22;9099;47.958;11.366;2023-12-20T05:39:35;6.90;99.90
17948;DHT22;9099;47.958;11.366;2023-12-20T05:42:02;6.90;99.90
17948;DHT22;9099;47.958;11.366;2023-12-20T05:44:28;6.90;99.90
17948;DHT22;9099;47.958;11.366;2023-12-20T05:46:55;6.90;99.90
17948;DHT22;9099;47.958;11.366;2023-12-20T05:49:23;6.80;99.90
17948;DHT22;9099;47.958;11.366;2023-12-20T05:51:50;6.70;99.90
17948;DHT22;9099;47.958;11.366;2023-12-20T05:54:17;6.60;99.90
17948;DHT22;9099;47.958;11.366;2023-12-20T05:56:44;6.60;99.90
17948;DHT22;9099;47.958;11.366;2023-12-20T05:59:10;6.50;99.90
17948;DHT22;9099;47.958;11.366;2023-12-20T06:01:37;6.40;99.90
17948;DHT22;9099;47.958;11.366;2023-12-20T06:04:04;6.40;99.90
17948;DHT22;9099;47.958;11.366;2023-12-20T06:06:32;6.30;99.90
17948;DHT22;9099;47.958;11.366;2023-12-20T06:08:59;6.20;99.90
17948;DHT22;9099;47.958;11.366;2023-12-20T06:11:26;6.20;99.90
17948;DHT22;9099;47.958;11.366;2023-12-20T06:13:53;6.20;99.90
17948;DHT22;9099;47.958;11.366;2023-12-20T06:16:19;6.10;99.90
17948;DHT22;9099;47.958;11.366;2023-12-20T06:18:46;6.10;99.90
17948;DHT22;9099;47.958;11.366;2023-12-20T06:21:13;6.10;99.90
17948;DHT22;9099;47.958;11.366;2023-12-20T06:23:41;6.10;99.90
17948;DHT22;9099;47.958;11.366;2023-12-20T06:26:08;6.00;99.90
17948;DHT22;9099;47.958;11.366;2023-12-20T06:28:35;6.00;99.90
17948;DHT22;9099;47.958;11.366;2023-12-20T06:31:02;5.90;99.90
17948;DHT22;9099;47.958;11.366;2023-12-20T06:33:29;5.90;99.90
17948;DHT22;9099;47.958;11.366;2023-12-20T06:35:56;5.90;99.90
17948;DHT22;9099;47.958;11.366;2023-12-20T06:38:23;5.80;99.90
17948;DHT22;9099;47.958;11.366;2023-12-20T06:40:51;5.90;99.90
17948;DHT22;9099;47.958;11.366;2023-12-20T06:43:18;5.80;99.90
17948;DHT22;9099;47.958;11.366;2023-12-20T06:45:45;5.80;99.90
17948;DHT22;9099;47.958;11.366;2023-12-20T06:48:11;5.80;99.90
17948;DHT22;9099;47.958;11.366;2023-12-20T06:50:39;5.90;99.90
17948;DHT22;9099;47.958;11.366;2023-12-20T06:53:06;5.80;99.90
17948;DHT22;9099;47.958;11.366;2023-12-20T06:55:33;5.80;99.90
17948;DHT22;9099;47.958;11.366;2023-12-20T06:58:02;5.70;99.90
17948;DHT22;9099;47.958;11.366;2023-12-20T07:00:30;5.70;99.90
17948;DHT22;9099;47.958;11.366;2023-12-20T07:02:56;5.70;99.90
17948;DHT22;9099;47.958;11.366;2023-12-20T07:05:23;5.60;99.90
17948;DHT22;9099;47.958;11.366;2023-12-20T07:07:50;5.60;99.90
17948;DHT22;9099;47.958;11.366;2023-12-20T07:10:17;5.60;99.90
17948;DHT22;9099;47.958;11.366;2023-12-20T07:12:44;5.60;99.90
17948;DHT22;9099;47.958;11.366;2023-12-20T07:15:12;5.60;99.90
17948;DHT22;9099;47.958;11.366;2023-12-20T07:17:39;5.50;99.90
17948;DHT22;9099;47.958;11.366;2023-12-20T07:20:07;5.50;99.90
17948;DHT22;9099;47.958;11.366;2023-12-20T07:22:36;5.50;99.90
17948;DHT22;9099;47.958;11.366;2023-12-20T07:25:03;5.50;99.90
17948;DHT22;9099;47.958;11.366;2023-12-20T07:27:30;5.50;99.90
17948;DHT22;9099;47.958;11.366;2023-12-20T07:29:57;5.50;99.90
17948;DHT22;9099;47.958;11.366;2023-12-20T07:32:25;5.50;99.90
17948;DHT22;9099;47.958;11.366;2023-12-20T07:34:52;5.50;99.90
17948;DHT22;9099;47.958;11.366;2023-12-20T07:37:20;5.50;99.90
17948;DHT22;9099;47.958;11.366;2023-12-20T07:39:47;5.50;99.90
17948;DHT22;9099;47.958;11.366;2023-12-20T07:42:13;5.50;99.90
17948;DHT22;9099;47.958;11.366;2023-12-20T07:44:40;5.50;99.90
17948;DHT22;9099;47.958;11.366;2023-12-20T07:47:07;5.50;99.90
17948;DHT22;9099;47.958;11.366;2023-12-20T07:49:34;5.50;99.90
17948;DHT22;9099;47.958;11.366;2023-12-20T07:52:01;5.50;99.90
17948;DHT22;9099;47.958;11.366;2023-12-20T07:54:28;5.50;99.90
17948;DHT22;9099;47.958;11.366;2023-12-20T07:56:56;5.50;99.90
17948;DHT22;9099;47.958;11.366;2023-12-20T07:59:23;5.60;99.90
17948;DHT22;9099;47.958;11.366;2023-12-20T08:01:50;5.60;99.90
17948;DHT22;9099;47.958;11.366;2023-12-20T08:04:17;5.60;99.90
17948;DHT22;9099;47.958;11.366;2023-12-20T08:06:45;5.60;99.90
17948;DHT22;9099;47.958;11.366;2023-12-20T08:09:12;5.70;99.90
17948;DHT22;9099;47.958;11.366;2023-12-20T08:11:38;5.70;99.90
17948;DHT22;9099;47.958;11.366;2023-12-20T08:14:05;5.60;99.90
17948;DHT22;9099;47.958;11.366;2023-12-20T08:16:32;5.50;99.90
17948;DHT22;9099;47.958;11.366;2023-12-20T08:18:59;5.50;99.90
17948;DHT22;9099;47.958;11.366;2023-12-20T08:21:25;5.50;99.90
17948;DHT22;9099;47.958;11.366;2023-12-20T08:23:54;5.50;99.90
17948;DHT22;9099;47.958;11.366;2023-12-20T08:26:21;5.40;99.90
17948;DHT22;9099;47.958;11.366;2023-12-20T08:28:49;5.40;99.90
17948;DHT22;9099;47.958;11.366;2023-12-20T08:31:17;5.40;99.90
17948;DHT22;9099;47.958;11.366;2023-12-20T08:33:45;5.40;99.90
17948;DHT22;9099;47.958;11.366;2023-12-20T08:36:12;5.40;99.90
17948;DHT22;9099;47.958;11.366;2023-12-20T08:38:39;5.40;99.90
17948;DHT22;9099;47.958;11.366;2023-12-20T08:41:07;5.40;99.90
17948;DHT22;9099;47.958;11.366;2023-12-20T08:43:34;5.40;99.90
17948;DHT22;9099;47.958;11.366;2023-12-20T08:46:02;5.40;99.90
17948;DHT22;9099;47.958;11.366;2023-12-20T08:48:28;5.40;99.90
17948;DHT22;9099;47.958;11.366;2023-12-20T08:50:55;5.40;99.90
17948;DHT22;9099;47.958;11.366;2023-12-20T08:53:22;5.40;99.90
17948;DHT22;9099;47.958;11.366;2023-12-20T08:55:49;5.40;99.90
17948;DHT22;9099;47.958;11.366;2023-12-20T08:58:17;5.40;99.90
17948;DHT22;9099;47.958;11.366;2023-12-20T09:00:45;5.40;99.90
17948;DHT22;9099;47.958;11.366;2023-12-20T09:03:12;5.40;99.90
17948;DHT22;9099;47.958;11.366;2023-12-20T09:05:38;5.40;99.90
17948;DHT22;9099;47.958;11.366;2023-12-20T09:08:06;5.40;99.90
17948;DHT22;9099;47.958;11.366;2023-12-20T09:10:33;5.50;99.90
17948;DHT22;9099;47.958;11.366;2023-12-20T09:13:00;5.60;99.90
17948;DHT22;9099;47.958;11.366;2023-12-20T09:15:29;5.60;99.90
17948;DHT22;9099;47.958;11.366;2023-12-20T09:17:56;5.60;99.90
17948;DHT22;9099;47.958;11.366;2023-12-20T09:20:22;5.60;99.90
17948;DHT22;9099;47.958;11.366;2023-12-20T09:22:50;5.60;99.90
17948;DHT22;9099;47.958;11.366;2023-12-20T09:25:16;5.70;99.90
17948;DHT22;9099;47.958;11.366;2023-12-20T09:27:43;5.70;99.90
17948;DHT22;9099;47.958;11.366;2023-12-20T09:30:10;5.70;99.90
17948;DHT22;9099;47.958;11.366;2023-12-20T09:32:38;5.80;99.90
17948;DHT22;9099;47.958;11.366;2023-12-20T09:35:06;5.90;99.90
17948;DHT22;9099;47.958;11.366;2023-12-20T09:37:34;5.90;99.90
17948;DHT22;9099;47.958;11.366;2023-12-20T09:40:01;5.90;99.90
17948;DHT22;9099;47.958;11.366;2023-12-20T09:42:36;6.00;99.90
17948;DHT22;9099;47.958;11.366;2023-12-20T09:45:08;6.00;99.90
17948;DHT22;9099;47.958;11.366;2023-12-20T09:50:59;6.00;99.90
17948;DHT22;9099;47.958;11.366;2023-12-20T09:53:26;6.00;99.90
17948;DHT22;9099;47.958;11.366;2023-12-20T09:55:58;6.10;99.90
17948;DHT22;9099;47.958;11.366;2023-12-20T09:58:25;6.10;99.90
17948;DHT22;9099;47.958;11.366;2023-12-20T10:00:53;6.10;99.90
17948;DHT22;9099;47.958;11.366;2023-12-20T10:03:24;6.10;99.90
17948;DHT22;9099;47.958;11.366;2023-12-20T10:05:52;6.10;99.90
17948;DHT22;9099;47.958;11.366;2023-12-20T10:08:22;6.10;99.90
17948;DHT22;9099;47.958;11.366;2023-12-20T10:10:50;6.10;99.90
17948;DHT22;9099;47.958;11.366;2023-12-20T10:13:17;6.20;99.90
17948;DHT22;9099;47.958;11.366;2023-12-20T10:15:44;6.20;99.90
17948;DHT22;9099;47.958;11.366;2023-12-20T10:18:12;6.30;99.90
17948;DHT22;9099;47.958;11.366;2023-12-20T10:20:40;6.40;99.90
17948;DHT22;9099;47.958;11.366;2023-12-20T10:23:07;6.40;99.90
17948;DHT22;9099;47.958;11.366;2023-12-20T10:25:35;6.40;99.90
17948;DHT22;9099;47.958;11.366;2023-12-20T10:28:10;6.40;99.90
17948;DHT22;9099;47.958;11.366;2023-12-20T10:30:37;6.40;99.90
17948;DHT22;9099;47.958;11.366;2023-12-20T10:33:05;6.50;99.90
17948;DHT22;9099;47.958;11.366;2023-12-20T10:35:32;6.40;99.90
17948;DHT22;9099;47.958;11.366;2023-12-20T10:38:03;6.40;99.90
17948;DHT22;9099;47.958;11.366;2023-12-20T10:40:30;6.40;99.90
17948;DHT22;9099;47.958;11.366;2023-12-20T10:42:59;6.40;99.90
17948;DHT22;9099;47.958;11.366;2023-12-20T10:45:27;6.50;99.90
17948;DHT22;9099;47.958;11.366;2023-12-20T10:47:56;6.50;99.90
17948;DHT22;9099;47.958;11.366;2023-12-20T10:50:25;6.50;99.90
17948;DHT22;9099;47.958;11.366;2023-12-20T10:52:54;6.50;99.90
17948;DHT22;9099;47.958;11.366;2023-12-20T10:55:21;6.50;99.90
17948;DHT22;9099;47.958;11.366;2023-12-20T10:57:49;6.50;99.90
17948;DHT22;9099;47.958;11.366;2023-12-20T11:00:19;6.50;99.90
17948;DHT22;9099;47.958;11.366;2023-12-20T11:02:49;6.50;99.90
17948;DHT22;9099;47.958;11.366;2023-12-20T11:05:26;6.60;99.90
17948;DHT22;9099;47.958;11.366;2023-12-20T11:07:58;6.60;99.90
17948;DHT22;9099;47.958;11.366;2023-12-20T11:10:31;6.60;99.90
17948;DHT22;9099;47.958;11.366;2023-12-20T11:13:01;6.60;99.90
17948;DHT22;9099;47.958;11.366;2023-12-20T11:15:36;6.60;99.90
17948;DHT22;9099;47.958;11.366;2023-12-20T11:18:04;6.60;99.90
17948;DHT22;9099;47.958;11.366;2023-12-20T11:20:36;6.60;99.90
17948;DHT22;9099;47.958;11.366;2023-12-20T11:23:04;6.60;99.90
17948;DHT22;9099;47.958;11.366;2023-12-20T11:25:47;6.60;99.90
17948;DHT22;9099;47.958;11.366;2023-12-20T11:28:14;6.70;99.90
17948;DHT22;9099;47.958;11.366;2023-12-20T11:30:50;6.70;99.90
17948;DHT22;9099;47.958;11.366;2023-12-20T11:33:21;6.60;99.90
17948;DHT22;9099;47.958;11.366;2023-12-20T11:35:49;6.60;99.90
17948;DHT22;9099;47.958;11.366;2023-12-20T11:38:16;6.60;99.90
17948;DHT22;9099;47.958;11.366;2023-12-20T11:40:43;6.60;99.90
17948;DHT22;9099;47.958;11.366;2023-12-20T11:43:10;6.70;99.90
17948;DHT22;9099;47.958;11.366;2023-12-20T11:45:38;6.70;99.90
17948;DHT22;9099;47.958;11.366;2023-12-20T11:48:17;6.70;99.90
17948;DHT22;9099;47.958;11.366;2023-12-20T11:50:45;6.80;99.90
17948;DHT22;9099;47.958;11.366;2023-12-20T11:53:12;6.80;99.90
17948;DHT22;9099;47.958;11.366;2023-12-20T11:55:38;6.80;99.90
17948;DHT22;9099;47.958;11.366;2023-12-20T11:58:05;6.80;99.90
17948;DHT22;9099;47.958;11.366;2023-12-20T12:00:34;6.80;99.90
17948;DHT22;9099;47.958;11.366;2023-12-20T12:03:01;6.70;99.90
17948;DHT22;9099;47.958;11.366;2023-12-20T12:05:32;6.70;99.90
17948;DHT22;9099;47.958;11.366;2023-12-20T12:07:59;6.70;99.90
17948;DHT22;9099;47.958;11.366;2023-12-20T12:10:25;6.60;99.90
17948;DHT22;9099;47.958;11.366;2023-12-20T12:12:52;6.60;99.90
17948;DHT22;9099;47.958;11.366;2023-12-20T12:15:19;6.60;99.90
17948;DHT22;9099;47.958;11.366;2023-12-20T12:17:53;6.50;99.90
17948;DHT22;9099;47.958;11.366;2023-12-20T12:20:20;6.50;99.90
17948;DHT22;9099;47.958;11.366;2023-12-20T12:22:57;6.50;99.90
17948;DHT22;9099;47.958;11.366;2023-12-20T12:25:24;6.60;99.90
17948;DHT22;9099;47.958;11.366;2023-12-20T12:27:51;6.70;99.90
17948;DHT22;9099;47.958;11.366;2023-12-20T12:30:18;6.70;99.90
17948;DHT22;9099;47.958;11.366;2023-12-20T12:32:45;6.70;99.90
17948;DHT22;9099;47.958;11.366;2023-12-20T12:35:12;6.80;99.90
17948;DHT22;9099;47.958;11.366;2023-12-20T12:37:40;6.70;99.90
17948;DHT22;9099;47.958;11.366;2023-12-20T12:40:10;6.70;99.90
17948;DHT22;9099;47.958;11.366;2023-12-20T12:42:37;6.70;99.90
17948;DHT22;9099;47.958;11.366;2023-12-20T12:45:05;6.60;99.90
17948;DHT22;9099;47.958;11.366;2023-12-20T12:47:32;6.60;99.90
17948;DHT22;9099;47.958;11.366;2023-12-20T12:49:59;6.50;99.90
17948;DHT22;9099;47.958;11.366;2023-12-20T12:52:26;6.40;99.90
17948;DHT22;9099;47.958;11.366;2023-12-20T12:54:53;6.50;99.90
17948;DHT22;9099;47.958;11.366;2023-12-20T12:57:21;6.50;99.90
17948;DHT22;9099;47.958;11.366;2023-12-20T12:59:49;6.50;99.90
17948;DHT22;9099;47.958;11.366;2023-12-20T13:02:16;6.50;99.90
17948;DHT22;9099;47.958;11.366;2023-12-20T13:04:44;6.50;99.90
17948;DHT22;9099;47.958;11.366;2023-12-20T13:07:11;6.60;99.90
17948;DHT22;9099;47.958;11.366;2023-12-20T13:09:39;6.70;99.90
17948;DHT22;9099;47.958;11.366;2023-12-20T13:12:07;6.70;99.90
17948;DHT22;9099;47.958;11.366;2023-12-20T13:14:35;6.70;99.90
17948;DHT22;9099;47.958;11.366;2023-12-20T13:17:03;6.70;99.90
17948;DHT22;9099;47.958;11.366;2023-12-20T13:19:31;6.70;99.90
17948;DHT22;9099;47.958;11.366;2023-12-20T13:21:58;6.70;99.90
17948;DHT22;9099;47.958;11.366;2023-12-20T13:24:25;6.70;99.90
17948;DHT22;9099;47.958;11.366;2023-12-20T13:26:52;6.60;99.90
17948;DHT22;9099;47.958;11.366;2023-12-20T13:29:19;6.60;99.90
17948;DHT22;9099;47.958;11.366;2023-12-20T13:31:47;6.60;99.90
17948;DHT22;9099;47.958;11.366;2023-12-20T13:34:14;6.60;99.90
17948;DHT22;9099;47.958;11.366;2023-12-20T13:36:43;6.60;99.90
17948;DHT22;9099;47.958;11.366;2023-12-20T13:39:13;6.60;99.90
17948;DHT22;9099;47.958;11.366;2023-12-20T13:41:40;6.60;99.90
17948;DHT22;9099;47.958;11.366;2023-12-20T13:44:07;6.60;99.90
17948;DHT22;9099;47.958;11.366;2023-12-20T13:46:34;6.60;99.90
17948;DHT22;9099;47.958;11.366;2023-12-20T13:49:03;6.50;99.90
17948;DHT22;9099;47.958;11.366;2023-12-20T13:51:31;6.60;99.90
17948;DHT22;9099;47.958;11.366;2023-12-20T13:53:58;6.60;99.90
17948;DHT22;9099;47.958;11.366;2023-12-20T13:56:25;6.80;99.90
17948;DHT22;9099;47.958;11.366;2023-12-20T13:58:52;6.90;99.90
17948;DHT22;9099;47.958;11.366;2023-12-20T14:01:19;7.00;99.90
17948;DHT22;9099;47.958;11.366;2023-12-20T14:03:46;7.10;99.90
17948;DHT22;9099;47.958;11.366;2023-12-20T14:06:14;7.30;99.90
17948;DHT22;9099;47.958;11.366;2023-12-20T14:08:41;7.20;99.90
17948;DHT22;9099;47.958;11.366;2023-12-20T14:11:09;6.90;99.90
17948;DHT22;9099;47.958;11.366;2023-12-20T14:13:36;6.60;99.90
17948;DHT22;9099;47.958;11.366;2023-12-20T14:16:03;6.40;99.90
17948;DHT22;9099;47.958;11.366;2023-12-20T14:18:30;6.20;99.90
17948;DHT22;9099;47.958;11.366;2023-12-20T14:20:57;6.10;99.90
17948;DHT22;9099;47.958;11.366;2023-12-20T14:23:25;5.90;99.90
17948;DHT22;9099;47.958;11.366;2023-12-20T14:25:52;5.90;99.90
17948;DHT22;9099;47.958;11.366;2023-12-20T14:28:21;5.70;99.90
17948;DHT22;9099;47.958;11.366;2023-12-20T14:30:48;5.60;99.90
17948;DHT22;9099;47.958;11.366;2023-12-20T14:33:15;5.50;99.90
17948;DHT22;9099;47.958;11.366;2023-12-20T14:35:42;5.50;99.90
17948;DHT22;9099;47.958;11.366;2023-12-20T14:38:10;5.40;99.90
17948;DHT22;9099;47.958;11.366;2023-12-20T14:40:40;5.40;99.90
17948;DHT22;9099;47.958;11.366;2023-12-20T14:43:07;5.40;99.90
17948;DHT22;9099;47.958;11.366;2023-12-20T14:45:34;5.40;99.90
17948;DHT22;9099;47.958;11.366;2023-12-20T14:48:01;5.40;99.90
17948;DHT22;9099;47.958;11.366;2023-12-20T14:50:28;5.30;99.90
17948;DHT22;9099;47.958;11.366;2023-12-20T14:52:54;5.30;99.90
17948;DHT22;9099;47.958;11.366;2023-12-20T14:55:22;5.20;99.90
17948;DHT22;9099;47.958;11.366;2023-12-20T14:57:50;5.20;99.90
17948;DHT22;9099;47.958;11.366;2023-12-20T15:00:17;5.20;99.90
17948;DHT22;9099;47.958;11.366;2023-12-20T15:02:45;5.30;99.90
17948;DHT22;9099;47.958;11.366;2023-12-20T15:05:12;5.30;99.90
17948;DHT22;9099;47.958;11.366;2023-12-20T15:07:40;5.30;99.90
17948;DHT22;9099;47.958;11.366;2023-12-20T15:10:08;5.30;99.90
17948;DHT22;9099;47.958;11.366;2023-12-20T15:12:35;5.40;99.90
17948;DHT22;9099;47.958;11.366;2023-12-20T15:15:03;5.30;99.90
17948;DHT22;9099;47.958;11.366;2023-12-20T15:17:31;5.30;99.90
17948;DHT22;9099;47.958;11.366;2023-12-20T15:19:58;5.20;99.90
17948;DHT22;9099;47.958;11.366;2023-12-20T15:22:25;5.30;99.90
17948;DHT22;9099;47.958;11.366;2023-12-20T15:24:52;5.40;99.90
17948;DHT22;9099;47.958;11.366;2023-12-20T15:27:20;5.40;99.90
17948;DHT22;9099;47.958;11.366;2023-12-20T15:29:47;5.30;99.90
17948;DHT22;9099;47.958;11.366;2023-12-20T15:32:16;5.40;99.90
17948;DHT22;9099;47.958;11.366;2023-12-20T15:34:44;5.30;99.90
17948;DHT22;9099;47.958;11.366;2023-12-20T15:37:11;5.40;99.90
17948;DHT22;9099;47.958;11.366;2023-12-20T15:39:38;5.30;99.90
17948;DHT22;9099;47.958;11.366;2023-12-20T15:42:05;5.30;99.90
17948;DHT22;9099;47.958;11.366;2023-12-20T15:44:31;5.40;99.90
17948;DHT22;9099;47.958;11.366;2023-12-20T15:46:58;5.40;99.90
17948;DHT22;9099;47.958;11.366;2023-12-20T15:49:26;5.40;99.90